ěÝzenÝ letovÚho provozu ╚eskÚ republiky
Letiste: LKTB Aktualizace: 29.05.2023 15:03:38  UTC
 METAR LKTB 29.05. 15:00 ...
METAR LKTB 291500Z 06007KT 030V090 CAVOK 24/06 Q1017 NOSIG=
 TAF LKTB 29.05. 11:00 ...
TAF LKTB 291100Z 2912/3012 07008KT CAVOK      BECMG 2922/3000 34003KT      BECMG 3007/3009 07008KT      TEMPO 3009/3012 07010G24KT 9999 SCT050TCU=